createdAt,value
2022-11-21T00:00:03.612Z,30.90
2022-11-21T00:02:50.619Z,29.27
2022-11-21T00:05:23.693Z,30.38
2022-11-21T00:08:10.627Z,29.25
2022-11-21T00:10:52.630Z,30.33
2022-11-21T00:13:46.728Z,29.63
2022-11-21T00:16:40.620Z,30.73
2022-11-21T00:19:27.621Z,31.50
2022-11-21T00:22:00.775Z,30.83
2022-11-21T00:24:51.689Z,29.50
2022-11-21T00:27:26.762Z,28.27
2022-11-21T00:30:15.638Z,29.02
2022-11-21T00:32:48.731Z,30.00
2022-11-21T00:35:35.694Z,29.23
2022-11-21T00:38:08.720Z,29.42
2022-11-21T00:41:02.662Z,28.55
2022-11-21T00:43:56.643Z,28.27
2022-11-21T00:46:43.609Z,26.85
2022-11-21T00:49:16.721Z,26.88
2022-11-21T00:52:03.692Z,27.13
2022-11-21T00:54:36.769Z,25.90
2022-11-21T00:57:23.626Z,26.02
2022-11-21T01:00:03.700Z,26.75
2022-11-21T01:02:57.635Z,27.98
2022-11-21T01:05:44.639Z,26.35
2022-11-21T01:08:24.644Z,28.13
2022-11-21T01:11:19.696Z,27.75
2022-11-21T01:14:07.698Z,26.58
2022-11-21T01:16:43.613Z,27.98
2022-11-21T01:19:30.681Z,28.83
2022-11-21T01:22:03.720Z,28.25
2022-11-21T01:24:50.632Z,26.88
2022-11-21T01:27:23.738Z,29.35
2022-11-21T01:30:10.662Z,28.15
2022-11-21T01:32:50.730Z,29.10
2022-11-21T01:35:37.699Z,28.33
2022-11-21T01:38:17.689Z,28.88
2022-11-21T01:41:11.696Z,27.85
2022-11-21T01:43:58.638Z,28.00
2022-11-21T01:46:32.781Z,27.23
2022-11-21T01:49:31.696Z,25.80
2022-11-21T01:52:35.887Z,26.00
2022-11-21T01:55:22.672Z,25.50
2022-11-21T01:58:02.653Z,25.45
2022-11-21T02:01:00.732Z,25.38
2022-11-21T02:03:49.633Z,26.13
2022-11-21T02:06:22.776Z,26.05
2022-11-21T02:09:10.656Z,26.02
2022-11-21T02:11:52.770Z,24.50
2022-11-21T02:14:40.663Z,26.05
2022-11-21T02:17:15.730Z,26.08
2022-11-21T02:20:04.710Z,27.10
2022-11-21T02:22:51.838Z,26.48
2022-11-21T02:25:42.657Z,25.77
2022-11-21T02:28:20.778Z,25.95
2022-11-21T02:31:07.696Z,25.17
2022-11-21T02:33:47.698Z,24.85
2022-11-21T02:36:48.656Z,23.83
2022-11-21T02:39:36.764Z,25.52
2022-11-21T02:42:27.701Z,25.65
2022-11-21T02:45:17.697Z,26.95
2022-11-21T02:48:04.760Z,25.52
2022-11-21T02:50:43.443Z,26.77
2022-11-21T02:53:29.699Z,23.90
2022-11-21T02:56:02.875Z,23.85
2022-11-21T02:58:49.698Z,24.35
2022-11-21T03:01:29.745Z,23.65
2022-11-21T03:04:23.700Z,22.38
2022-11-21T03:07:10.764Z,21.80
2022-11-21T03:09:43.784Z,22.25
2022-11-21T03:12:30.726Z,20.80
2022-11-21T03:15:03.790Z,20.55
2022-11-21T03:17:50.720Z,21.50
2022-11-21T03:20:23.843Z,21.10
2022-11-21T03:23:10.713Z,21.65
2022-11-21T03:25:43.865Z,21.48
2022-11-21T03:28:30.708Z,21.25
2022-11-21T03:31:03.780Z,22.33
2022-11-21T03:33:50.710Z,25.10
2022-11-21T03:36:24.075Z,27.70
2022-11-21T03:39:10.719Z,27.45
2022-11-21T03:41:43.773Z,25.98
2022-11-21T03:44:30.710Z,25.08
2022-11-21T03:47:03.776Z,26.40
2022-11-21T03:49:50.721Z,25.85
2022-11-21T03:52:23.785Z,20.95
2022-11-21T03:55:11.686Z,21.35
2022-11-21T03:57:45.861Z,23.10
2022-11-21T04:00:34.712Z,21.52
2022-11-21T04:03:10.802Z,20.70
2022-11-21T04:05:57.746Z,20.75
2022-11-21T04:08:30.801Z,21.55
2022-11-21T04:11:17.742Z,21.58
2022-11-21T04:13:50.887Z,20.33
2022-11-21T04:16:37.741Z,21.45
2022-11-21T04:19:17.734Z,20.10
2022-11-21T04:22:04.721Z,21.08
2022-11-21T04:24:44.715Z,20.65
2022-11-21T04:27:31.713Z,19.67
2022-11-21T04:30:11.744Z,20.17
2022-11-21T04:33:06.714Z,20.42
2022-11-21T04:36:00.711Z,20.60
2022-11-21T04:38:47.735Z,20.77
2022-11-21T04:41:20.806Z,21.63
2022-11-21T04:44:07.781Z,22.48
2022-11-21T04:46:40.808Z,21.13
2022-11-21T04:49:27.748Z,20.35
2022-11-21T04:52:00.805Z,19.33
2022-11-21T04:54:47.784Z,21.05
2022-11-21T04:57:20.804Z,20.08
2022-11-21T05:00:07.805Z,18.95
2022-11-21T05:02:40.848Z,20.08
2022-11-21T05:05:27.754Z,18.25
2022-11-21T05:08:07.744Z,18.95
2022-11-21T05:11:19.754Z,17.27
2022-11-21T05:14:13.738Z,20.20
2022-11-21T05:17:07.747Z,19.63
2022-11-21T05:20:03.755Z,22.08
2022-11-21T05:22:52.736Z,23.27
2022-11-21T05:25:25.829Z,26.02
2022-11-21T05:28:12.727Z,28.05
2022-11-21T05:30:52.714Z,27.73
2022-11-21T05:33:46.816Z,27.77
2022-11-21T05:36:33.736Z,27.88
2022-11-21T05:39:06.906Z,26.10
2022-11-21T05:42:02.555Z,26.85
2022-11-21T05:44:35.841Z,24.13
2022-11-21T05:47:22.739Z,22.75
2022-11-21T05:49:55.830Z,23.63
2022-11-21T05:52:42.748Z,23.63
2022-11-21T05:55:15.837Z,25.58
2022-11-21T05:58:06.738Z,26.85
2022-11-21T06:00:39.833Z,24.90
2022-11-21T06:03:34.724Z,24.25
2022-11-21T06:06:25.067Z,24.08
2022-11-21T06:09:18.728Z,25.45
2022-11-21T06:12:05.741Z,26.67
2022-11-21T06:14:45.800Z,26.75
2022-11-21T06:17:39.743Z,24.60
2022-11-21T06:20:28.741Z,25.48
2022-11-21T06:23:08.730Z,23.73
2022-11-21T06:26:02.759Z,22.73
2022-11-21T06:28:50.814Z,22.48
2022-11-21T06:31:44.729Z,21.83
2022-11-21T06:34:33.790Z,25.08
2022-11-21T06:37:13.791Z,25.15
2022-11-21T06:40:07.801Z,24.90
2022-11-21T06:43:01.788Z,28.58
2022-11-21T06:45:48.752Z,30.23
2022-11-21T06:48:21.883Z,30.40
2022-11-21T06:51:27.795Z,33.80
2022-11-21T06:54:04.910Z,33.08
2022-11-21T06:56:51.802Z,35.70
2022-11-21T06:59:24.850Z,34.63
2022-11-21T07:02:11.818Z,33.10
2022-11-21T07:04:51.819Z,33.30
2022-11-21T07:07:50.757Z,33.35
2022-11-21T07:10:37.816Z,31.88
2022-11-21T07:13:23.096Z,32.80
2022-11-21T07:16:14.740Z,30.65
2022-11-21T07:18:48.917Z,28.38
2022-11-21T07:21:35.798Z,28.63
2022-11-21T07:24:08.922Z,29.80
2022-11-21T07:26:55.784Z,32.40
2022-11-21T07:29:29.294Z,33.13
2022-11-21T07:32:16.754Z,34.28
2022-11-21T07:34:49.887Z,33.08
2022-11-21T07:37:37.890Z,35.90
2022-11-21T07:40:11.904Z,33.80
2022-11-21T07:43:10.605Z,30.88
2022-11-21T07:45:57.795Z,30.02
2022-11-21T07:48:30.859Z,32.80
2022-11-21T07:51:17.867Z,32.13
2022-11-21T07:53:50.859Z,32.65
2022-11-21T07:56:37.786Z,33.40
2022-11-21T07:59:10.867Z,30.83
2022-11-21T08:01:58.896Z,29.83
2022-11-21T08:04:31.889Z,29.80
2022-11-21T08:07:18.828Z,28.92
2022-11-21T08:09:52.912Z,27.88
2022-11-21T08:12:39.782Z,28.50
2022-11-21T08:15:12.911Z,29.17
2022-11-21T08:17:59.788Z,27.30
2022-11-21T08:20:32.857Z,29.77
2022-11-21T08:23:19.782Z,27.70
2022-11-21T08:25:59.793Z,27.60
2022-11-21T08:28:59.638Z,28.05
2022-11-21T08:31:47.792Z,28.30
2022-11-21T08:34:20.925Z,28.48
2022-11-21T08:37:08.811Z,29.05
2022-11-21T08:39:41.873Z,27.75
2022-11-21T08:42:35.889Z,27.02
2022-11-21T08:45:22.819Z,29.05
2022-11-21T08:47:55.935Z,24.33
2022-11-21T08:50:42.816Z,24.95
2022-11-21T08:53:22.816Z,23.73
2022-11-21T08:56:09.845Z,24.25
2022-11-21T08:58:49.798Z,25.58
2022-11-21T09:01:36.851Z,25.98
2022-11-21T09:04:13.248Z,28.20
2022-11-21T09:06:59.864Z,29.10
2022-11-21T09:09:33.939Z,27.65
2022-11-21T09:12:20.815Z,28.90
2022-11-21T09:15:12.581Z,28.88
2022-11-21T09:18:10.813Z,26.45
2022-11-21T09:20:49.977Z,26.40
2022-11-21T09:23:36.822Z,27.05
2022-11-21T09:26:09.896Z,25.48
2022-11-21T09:28:56.816Z,26.48
2022-11-21T09:31:29.948Z,29.38
2022-11-21T09:34:16.863Z,27.83
2022-11-21T09:36:56.941Z,26.88
2022-11-21T09:39:36.823Z,29.00
2022-11-21T09:42:39.904Z,26.63
2022-11-21T09:45:35.844Z,28.15
2022-11-21T09:48:20.002Z,28.05
2022-11-21T09:51:13.849Z,26.92
2022-11-21T09:54:08.907Z,25.75
2022-11-21T09:56:55.875Z,27.10
2022-11-21T09:59:40.976Z,27.88
2022-11-21T10:02:30.825Z,25.75
2022-11-21T10:05:03.910Z,26.48
2022-11-21T10:07:52.001Z,28.83
2022-11-21T10:10:33.927Z,29.33
2022-11-21T10:13:34.859Z,28.58
2022-11-21T10:16:21.943Z,24.25
2022-11-21T10:19:31.836Z,23.88
2022-11-21T10:22:29.893Z,24.52
2022-11-21T10:25:28.886Z,24.02
2022-11-21T10:28:25.869Z,23.08
2022-11-21T10:31:07.880Z,23.52
2022-11-21T10:34:04.044Z,23.63
2022-11-21T10:36:54.865Z,22.80
2022-11-21T10:39:30.915Z,21.50
2022-11-21T10:42:36.864Z,23.23
2022-11-21T10:45:30.966Z,23.40
2022-11-21T10:48:17.860Z,21.08
2022-11-21T10:51:06.196Z,23.30
2022-11-21T10:54:10.865Z,23.23
2022-11-21T10:56:43.947Z,26.00
2022-11-21T10:59:33.856Z,25.92
2022-11-21T11:02:25.865Z,24.60
2022-11-21T11:05:29.868Z,22.52
2022-11-21T11:08:18.865Z,21.98
2022-11-21T11:11:07.108Z,23.58
2022-11-21T11:14:04.588Z,23.50
2022-11-21T11:16:48.864Z,23.90
2022-11-21T11:19:43.058Z,23.00
2022-11-21T11:22:36.861Z,24.27
2022-11-21T11:25:17.938Z,23.38
2022-11-21T11:28:19.860Z,25.10
2022-11-21T11:31:13.888Z,27.48
2022-11-21T11:34:09.859Z,24.52
2022-11-21T11:37:39.877Z,26.58
2022-11-21T11:40:43.868Z,25.38
2022-11-21T11:44:13.860Z,26.35
2022-11-21T11:47:39.858Z,26.48
2022-11-21T11:50:38.872Z,30.10
2022-11-21T11:53:33.897Z,31.45
2022-11-21T11:56:24.865Z,31.05
2022-11-21T11:59:42.872Z,29.08
2022-11-21T12:02:31.979Z,30.40
2022-11-21T12:05:37.876Z,29.73
2022-11-21T12:08:41.821Z,30.20
2022-11-21T12:11:56.859Z,30.73
2022-11-21T12:15:36.860Z,30.02
2022-11-21T12:18:26.868Z,27.52
2022-11-21T12:21:29.861Z,26.50
2022-11-21T12:24:27.857Z,27.10
2022-11-21T12:27:30.862Z,27.98
2022-11-21T12:30:45.247Z,26.63
2022-11-21T12:33:38.867Z,26.42
2022-11-21T12:36:49.892Z,25.67
2022-11-21T12:39:55.960Z,26.08
2022-11-21T12:43:41.891Z,27.35
2022-11-21T12:46:41.867Z,24.92
2022-11-21T12:50:18.951Z,27.38
2022-11-21T12:53:42.965Z,25.80
2022-11-21T12:56:51.883Z,25.88
2022-11-21T12:59:59.165Z,25.00
2022-11-21T13:02:51.877Z,24.15
2022-11-21T13:05:42.924Z,25.35
2022-11-21T13:08:39.187Z,23.15
2022-11-21T13:12:00.935Z,22.42
2022-11-21T13:14:59.857Z,25.98
2022-11-21T13:17:34.704Z,25.08
2022-11-21T13:20:34.914Z,24.67
2022-11-21T13:23:15.886Z,25.42
2022-11-21T13:26:04.915Z,25.50
2022-11-21T13:28:41.021Z,26.42
2022-11-21T13:31:35.873Z,25.85
2022-11-21T13:34:10.957Z,27.00
2022-11-21T13:36:57.880Z,30.05
2022-11-21T13:39:39.117Z,30.92
2022-11-21T13:46:37.885Z,27.13
2022-11-21T13:49:29.133Z,25.88
2022-11-21T13:52:43.884Z,24.23
2022-11-21T13:56:09.882Z,25.70
2022-11-21T13:59:43.177Z,27.30
2022-11-21T14:02:29.958Z,26.90
2022-11-21T14:05:11.961Z,27.20
2022-11-21T14:07:59.006Z,27.90
2022-11-21T14:10:33.907Z,26.58
2022-11-21T14:13:34.918Z,28.02
2022-11-21T14:16:27.910Z,26.85
2022-11-21T14:19:28.222Z,27.52
2022-11-21T14:22:50.902Z,25.45
2022-11-21T14:25:27.097Z,26.05
2022-11-21T14:28:28.931Z,32.65
2022-11-21T14:31:03.033Z,35.33
2022-11-21T14:33:50.920Z,34.25
2022-11-21T14:36:30.922Z,32.97
2022-11-21T14:39:37.740Z,30.10
2022-11-21T14:42:32.928Z,28.58
2022-11-21T14:45:32.917Z,27.98
2022-11-21T14:48:20.074Z,27.77
2022-11-21T14:50:52.971Z,31.50
2022-11-21T14:53:39.914Z,29.65
2022-11-21T14:56:22.948Z,28.08
2022-11-21T14:59:24.934Z,25.65
2022-11-21T15:02:10.924Z,25.25
2022-11-21T15:05:05.894Z,28.05
2022-11-21T15:08:16.767Z,27.98
2022-11-21T15:10:47.976Z,29.23
2022-11-21T15:14:06.745Z,27.80
2022-11-21T15:16:33.990Z,26.75
2022-11-21T15:19:29.397Z,26.63
2022-11-21T15:22:05.050Z,29.17
2022-11-21T15:24:51.897Z,28.92
2022-11-21T15:27:34.060Z,28.45
2022-11-21T15:30:20.921Z,30.38
2022-11-21T15:33:20.088Z,31.88
2022-11-21T15:36:18.913Z,34.88
2022-11-21T15:39:13.945Z,32.50
2022-11-21T15:42:00.959Z,39.22
2022-11-21T15:44:33.990Z,36.13
2022-11-21T15:47:20.925Z,33.13
2022-11-21T15:50:00.975Z,36.67
2022-11-21T15:52:54.929Z,37.88
2022-11-21T15:55:39.926Z,40.78
2022-11-21T15:58:26.944Z,53.13
2022-11-21T16:01:00.439Z,56.17
2022-11-21T16:03:46.953Z,59.38
2022-11-21T16:06:20.035Z,53.35
2022-11-21T16:09:07.926Z,47.60
2022-11-21T16:11:49.024Z,42.67
2022-11-21T16:14:28.929Z,43.25
2022-11-21T16:17:09.051Z,41.92
2022-11-21T16:19:49.564Z,45.00
2022-11-21T16:22:29.991Z,43.08
2022-11-21T16:25:09.946Z,44.13
2022-11-21T16:27:50.008Z,44.13
2022-11-21T16:30:29.929Z,47.55
2022-11-21T16:33:10.009Z,47.10
2022-11-21T16:35:49.931Z,51.30
2022-11-21T16:38:34.999Z,50.25
2022-11-21T16:41:16.943Z,53.33
2022-11-21T16:44:03.999Z,52.55
2022-11-21T16:46:43.950Z,52.25
2022-11-21T16:49:38.938Z,52.47
2022-11-21T16:52:25.999Z,53.22
2022-11-21T16:54:59.023Z,53.13
2022-11-21T16:57:45.955Z,51.63
2022-11-21T17:00:19.053Z,52.00
2022-11-21T17:03:05.948Z,50.80
2022-11-21T17:05:42.118Z,48.78
2022-11-21T17:08:28.982Z,52.70
2022-11-21T17:11:02.025Z,49.70
2022-11-21T17:13:49.958Z,52.15
2022-11-21T17:16:25.064Z,53.60
2022-11-21T17:19:11.939Z,54.00
2022-11-21T17:21:45.020Z,55.30
2022-11-21T17:24:32.062Z,57.90
2022-11-21T17:27:11.966Z,56.63
2022-11-21T17:30:05.955Z,58.92
2022-11-21T17:32:59.967Z,58.33
2022-11-21T17:35:53.964Z,60.10
2022-11-21T17:38:41.029Z,60.15
2022-11-21T17:41:18.038Z,57.80
2022-11-21T17:44:12.974Z,59.13
2022-11-21T17:47:24.989Z,58.65
2022-11-21T17:50:18.972Z,54.20
2022-11-21T17:53:05.964Z,57.53
2022-11-21T17:55:39.056Z,54.33
2022-11-21T17:58:25.963Z,51.05
2022-11-21T18:01:11.131Z,51.42
2022-11-21T18:04:13.581Z,51.55
2022-11-21T18:06:48.250Z,50.80
2022-11-21T18:09:35.014Z,52.38
2022-11-21T18:12:15.044Z,50.10
2022-11-21T18:15:10.073Z,50.97
2022-11-21T18:17:57.996Z,55.53
2022-11-21T18:20:31.086Z,54.47
2022-11-21T18:23:18.062Z,55.22
2022-11-21T18:25:51.176Z,50.63
2022-11-21T18:28:39.019Z,49.88
2022-11-21T18:31:19.063Z,50.03
2022-11-21T18:34:07.972Z,51.42
2022-11-21T18:36:41.134Z,53.15
2022-11-21T18:39:30.206Z,53.25
2022-11-21T18:42:10.993Z,56.55
2022-11-21T18:45:04.997Z,56.70
2022-11-21T18:47:53.051Z,60.20
2022-11-21T18:50:26.068Z,60.50
2022-11-21T18:53:12.969Z,84.00
2022-11-21T18:55:52.989Z,79.28
2022-11-21T18:58:47.992Z,70.50
2022-11-21T19:01:36.263Z,70.20
2022-11-21T19:04:17.021Z,69.20
2022-11-21T19:07:11.059Z,70.85
2022-11-21T19:10:14.765Z,67.10
2022-11-21T19:12:51.055Z,67.43
2022-11-21T19:15:38.992Z,79.25
2022-11-21T19:18:13.074Z,83.53
2022-11-21T19:21:00.006Z,81.95
2022-11-21T19:23:33.151Z,88.20
2022-11-21T19:26:21.995Z,90.53
2022-11-21T19:28:56.094Z,77.03
2022-11-21T19:31:45.950Z,74.65
2022-11-21T19:34:23.171Z,75.65
2022-11-21T19:37:10.002Z,72.50
2022-11-21T19:39:43.096Z,73.32
2022-11-21T19:42:30.018Z,71.18
2022-11-21T19:45:28.051Z,73.07
2022-11-21T19:48:15.013Z,69.45
2022-11-21T19:50:52.792Z,67.07
2022-11-21T19:53:45.031Z,68.28
2022-11-21T19:56:24.196Z,69.30
2022-11-21T19:59:12.057Z,66.05
2022-11-21T20:01:51.028Z,64.93
2022-11-21T20:04:39.007Z,65.95
2022-11-21T20:07:12.133Z,64.03
2022-11-21T20:09:59.044Z,63.08
2022-11-21T20:12:32.126Z,66.63
2022-11-21T20:15:19.040Z,64.30
2022-11-21T20:17:56.126Z,60.22
2022-11-21T20:20:43.037Z,61.65
2022-11-21T20:23:16.086Z,61.40
2022-11-21T20:26:03.073Z,60.78
2022-11-21T20:28:36.177Z,62.42
2022-11-21T20:31:25.003Z,62.92
2022-11-21T20:34:00.829Z,60.42
2022-11-21T20:36:48.019Z,58.72
2022-11-21T20:39:31.692Z,57.05
2022-11-21T20:42:18.016Z,55.60
2022-11-21T20:46:01.019Z,55.42
2022-11-21T20:47:58.005Z,59.45
2022-11-21T20:51:25.174Z,61.28
2022-11-21T20:53:51.512Z,66.00
2022-11-21T20:56:34.023Z,68.28
2022-11-21T20:59:21.041Z,72.47
2022-11-21T21:02:01.070Z,70.90
2022-11-21T21:04:48.040Z,71.28
2022-11-21T21:07:28.103Z,74.13
2022-11-21T21:10:22.015Z,71.13
2022-11-21T21:13:09.032Z,71.07
2022-11-21T21:15:42.101Z,70.82
2022-11-21T21:18:29.040Z,73.93
2022-11-21T21:21:22.098Z,74.45
2022-11-21T21:24:12.066Z,74.32
2022-11-21T21:26:52.180Z,70.22
2022-11-21T21:29:39.050Z,78.65
2022-11-21T21:32:12.137Z,75.78
2022-11-21T21:34:59.028Z,74.95
2022-11-21T21:37:32.127Z,79.28
2022-11-21T21:40:19.055Z,77.78
2022-11-21T21:42:52.106Z,75.43
2022-11-21T21:45:39.055Z,72.00
2022-11-21T21:48:19.027Z,69.30
2022-11-21T21:51:18.063Z,67.30
2022-11-21T21:54:06.054Z,66.35
2022-11-21T21:56:46.055Z,66.45
2022-11-21T21:59:40.056Z,69.22
2022-11-21T22:02:27.037Z,83.65
2022-11-21T22:05:00.123Z,78.55
2022-11-21T22:07:47.101Z,70.95
2022-11-21T22:10:20.146Z,72.38
2022-11-21T22:13:07.059Z,71.72
2022-11-21T22:15:40.120Z,66.45
2022-11-21T22:18:27.057Z,65.57
2022-11-21T22:21:00.132Z,63.95
2022-11-21T22:24:09.755Z,63.80
2022-11-21T22:26:40.153Z,65.88
2022-11-21T22:29:27.076Z,64.85
2022-11-21T22:32:00.145Z,60.45
2022-11-21T22:34:47.033Z,62.28
2022-11-21T22:37:20.128Z,63.05
2022-11-21T22:40:07.062Z,63.88
2022-11-21T22:42:40.159Z,62.95
2022-11-21T22:45:27.063Z,62.03
2022-11-21T22:48:00.135Z,56.63
2022-11-21T22:50:51.082Z,57.38
2022-11-21T22:53:24.130Z,58.67
2022-11-21T22:56:14.068Z,60.70
2022-11-21T22:58:47.171Z,63.42
2022-11-21T23:01:34.156Z,61.00
2022-11-21T23:04:17.690Z,60.15
2022-11-21T23:07:12.130Z,59.78
2022-11-21T23:09:59.092Z,55.78
2022-11-21T23:12:32.158Z,55.03
2022-11-21T23:15:19.095Z,55.33
2022-11-21T23:17:52.739Z,51.47
2022-11-21T23:20:39.076Z,53.17
2022-11-21T23:23:12.198Z,54.10
2022-11-21T23:25:59.084Z,53.08
2022-11-21T23:28:32.167Z,55.05
2022-11-21T23:31:19.071Z,58.38
2022-11-21T23:33:52.155Z,59.80
2022-11-21T23:36:39.070Z,59.03
2022-11-21T23:39:12.222Z,62.60
2022-11-21T23:41:59.094Z,59.40
2022-11-21T23:44:39.088Z,60.65
2022-11-21T23:47:33.124Z,57.67
2022-11-21T23:50:28.124Z,56.17
2022-11-21T23:53:16.087Z,52.65
2022-11-21T23:55:50.160Z,51.38
2022-11-21T23:58:37.113Z,54.90
